Página principal
METAR-TAF:

METAR-TAF

Aeroportos :

Chita, Rússia

latitude: 52-05N, longitude: 113-29E, altura: 685 m

Observação actual do tempo

O boletim foi feito há 26 minutos, às 22:00 UTC
Vento 2 kt de norte
Temperatura -32°C
Humidade 74%
Pressão 1034 hPa
Visibilidade 10 km ou mais

METAR: UIAA 092200Z 35001MPS 9999 NSC M32/M35 Q1034 R29/420150 NOSIG RMK QFE716/0955

Hora: 07:26 (22:26 UTC)

Previsão

O boletim foi feito há 2 horas e 26 minutos, às 20:00 UTC
Previsão válida de 09 às 21 UTC a 10 às 21 UTC
Vento 6 kt de oeste
Visibilidade: 3100 m
neblina, fumo

TAF: UIAA 092000Z 0921/1021 26003MPS 3100 BR FU NSC

Observações e previsões do tempo de mais de 4000 aeroportos (mensagens METAR e TAF).

As estações disponíveis são os pontos amarelos e vermelhos sobre o mapa.

Mova o rato sobre o mapa para ver o nome da estação.

Depois clique no ponto para visualizar as observações e previsões meteorológicas.

Para alterar o mapa : clique nos botões verdes com uma cruz preta para aumentar o zoom; no botão verde com uma pitada de zoom; ou nas setas verdes para mapas adjacentes.


METAR-TAF: